Time;durP1;ratioP1;P1;durP2;ratioP2;P2;SDS_P1;SDS_P2;PMS_P1;PMS_P2;Temp;Humidity;BMP_temperature;BMP_pressure;BME280_temperature;BME280_humidity;BME280_pressure;Samples;Min_cycle;Max_cycle;Signal;HPM_P1;HPM_P2
2022/12/27 00:00:00;;;;;;;1.90;1.00;;;5.50;99.90;;;;;;5002331;28;20529;-69
2022/12/27 00:02:27;;;;;;;3.03;0.98;;;5.50;99.90;;;;;;5000555;28;20049;-70
2022/12/27 00:04:54;;;;;;;3.03;1.00;;;5.50;99.90;;;;;;5010838;28;20108;-71
2022/12/27 00:07:21;;;;;;;2.92;1.00;;;5.40;99.90;;;;;;5001076;28;20046;-70
2022/12/27 00:09:49;;;;;;;1.73;1.00;;;5.40;99.90;;;;;;5019689;28;20497;-66
2022/12/27 00:12:17;;;;;;;3.03;1.50;;;5.30;99.90;;;;;;4992867;28;20100;-71
2022/12/27 00:14:44;;;;;;;1.52;1.20;;;5.30;99.90;;;;;;5020453;28;20114;-69
2022/12/27 00:17:12;;;;;;;2.22;1.25;;;5.30;99.90;;;;;;5006443;28;20050;-69
2022/12/27 00:19:39;;;;;;;1.38;1.08;;;5.20;99.90;;;;;;5005588;28;20512;-70
2022/12/27 00:22:07;;;;;;;3.85;1.35;;;5.10;99.90;;;;;;5010634;28;20046;-69
2022/12/27 00:24:34;;;;;;;2.40;1.15;;;5.10;99.90;;;;;;4999094;28;20041;-70
2022/12/27 00:27:01;;;;;;;2.13;1.30;;;5.10;99.90;;;;;;5007013;28;20050;-69
2022/12/27 00:29:29;;;;;;;1.90;1.17;;;5.00;99.90;;;;;;5005089;28;20129;-72
2022/12/27 00:31:56;;;;;;;2.45;1.33;;;5.00;99.90;;;;;;5016686;28;20133;-70
2022/12/27 00:34:23;;;;;;;2.38;1.20;;;4.90;99.90;;;;;;5010115;28;20353;-71
2022/12/27 00:36:51;;;;;;;4.93;1.45;;;4.90;99.90;;;;;;5022787;28;20034;-69
2022/12/27 00:39:18;;;;;;;4.43;1.33;;;4.80;99.90;;;;;;5002476;28;20420;-71
2022/12/27 00:41:45;;;;;;;2.15;1.50;;;4.80;99.90;;;;;;4992906;28;20053;-70
2022/12/27 00:44:13;;;;;;;2.60;1.38;;;4.80;99.90;;;;;;4990926;28;20074;-71
2022/12/27 00:46:40;;;;;;;3.15;1.48;;;4.80;99.90;;;;;;5017881;28;20627;-70
2022/12/27 00:49:07;;;;;;;4.05;1.60;;;4.70;99.90;;;;;;5002135;28;20050;-70
2022/12/27 00:51:35;;;;;;;4.18;1.60;;;4.60;99.90;;;;;;5004156;28;20467;-70
2022/12/27 00:54:03;;;;;;;3.83;1.70;;;4.50;99.90;;;;;;5024166;28;20041;-70
2022/12/27 00:56:30;;;;;;;2.55;1.35;;;4.50;99.90;;;;;;4998386;28;20070;-69
2022/12/27 00:59:00;;;;;;;3.85;1.75;;;4.40;99.90;;;;;;5004470;28;20049;-70
2022/12/27 01:01:29;;;;;;;2.92;1.50;;;4.40;99.90;;;;;;5003206;28;20048;-71
2022/12/27 01:03:57;;;;;;;4.82;1.60;;;4.40;99.90;;;;;;5009537;28;20080;-71
2022/12/27 01:06:29;;;;;;;3.17;1.48;;;4.30;99.90;;;;;;5006957;28;20069;-70
2022/12/27 01:08:57;;;;;;;5.32;1.63;;;4.20;99.90;;;;;;4998575;28;20049;-71
2022/12/27 01:11:28;;;;;;;2.45;1.50;;;4.20;99.90;;;;;;4989747;28;20116;-71
2022/12/27 01:14:00;;;;;;;4.00;1.63;;;4.20;99.90;;;;;;5022352;28;20045;-70
2022/12/27 01:16:28;;;;;;;;;;;4.10;99.90;;;;;;5009242;28;20096;-71
2022/12/27 01:18:57;;;;;;;4.15;1.80;;;4.10;99.90;;;;;;5007907;28;20035;-70
2022/12/27 01:21:24;;;;;;;3.38;1.60;;;4.00;99.90;;;;;;5005304;28;20468;-70
2022/12/27 01:23:52;;;;;;;4.20;1.52;;;4.00;99.90;;;;;;5005291;28;20072;-70
2022/12/27 01:26:21;;;;;;;5.03;1.50;;;3.90;99.90;;;;;;4997515;28;20496;-70
2022/12/27 01:28:49;;;;;;;3.50;1.98;;;3.90;99.90;;;;;;4991603;28;20045;-71
2022/12/27 01:31:26;;;;;;;3.20;1.60;;;3.80;99.90;;;;;;5003184;28;20149;-70
2022/12/27 01:33:59;;;;;;;3.10;1.38;;;3.70;99.90;;;;;;5004377;28;20076;-70
2022/12/27 01:36:29;;;;;;;4.93;1.70;;;3.70;99.90;;;;;;5020678;28;20057;-70
2022/12/27 01:38:58;;;;;;;3.58;1.70;;;3.70;99.90;;;;;;5009398;28;20472;-70
2022/12/27 01:44:38;;;;;;;4.70;1.67;;;3.70;99.90;;;;;;5005543;28;20057;-66
2022/12/27 01:47:12;;;;;;;3.10;1.50;;;3.70;99.90;;;;;;4989430;28;20116;-70
2022/12/27 01:49:42;;;;;;;2.17;1.50;;;3.70;99.90;;;;;;5007830;28;20060;-68
2022/12/27 01:52:11;;;;;;;3.58;1.33;;;3.60;99.90;;;;;;4998782;28;20042;-70
2022/12/27 01:54:39;;;;;;;4.30;1.65;;;3.60;99.90;;;;;;5003893;28;20103;-70
2022/12/27 01:57:07;;;;;;;4.38;1.70;;;3.60;99.90;;;;;;5003869;28;20042;-70
2022/12/27 01:59:35;;;;;;;4.15;1.90;;;3.50;99.90;;;;;;5007529;28;20073;-70
2022/12/27 02:02:03;;;;;;;4.88;1.70;;;3.50;99.90;;;;;;5041146;28;20378;-70
2022/12/27 02:04:31;;;;;;;2.95;1.67;;;3.50;99.90;;;;;;5011521;28;20045;-70
2022/12/27 02:07:00;;;;;;;3.38;1.40;;;3.40;99.90;;;;;;5009886;28;20121;-70
2022/12/27 02:09:42;;;;;;;4.55;1.67;;;3.40;99.90;;;;;;5005004;28;20070;-71
2022/12/27 02:12:10;;;;;;;5.07;1.60;;;3.30;99.90;;;;;;5006891;28;20463;-71
2022/12/27 02:14:48;;;;;;;6.47;1.60;;;3.30;99.90;;;;;;5009395;28;20351;-70
2022/12/27 02:17:27;;;;;;;4.18;1.60;;;3.40;99.90;;;;;;4991902;28;20053;-70
2022/12/27 02:19:59;;;;;;;4.78;1.52;;;3.40;99.90;;;;;;5009754;28;20059;-71
2022/12/27 02:26:13;;;;;;;3.95;1.55;;;3.30;99.90;;;;;;5003758;28;20053;-70
2022/12/27 02:29:12;;;;;;;4.90;1.67;;;3.30;99.90;;;;;;5009641;28;20045;-70
2022/12/27 02:31:41;;;;;;;3.75;1.70;;;3.20;99.90;;;;;;5003361;28;20473;-70
2022/12/27 02:34:28;;;;;;;2.15;1.40;;;3.10;99.90;;;;;;5009714;28;20512;-70
2022/12/27 02:37:05;;;;;;;6.90;2.15;;;3.10;99.90;;;;;;5025052;28;20144;-70
2022/12/27 02:39:36;;;;;;;3.80;1.60;;;3.10;99.90;;;;;;5009459;28;20046;-70
2022/12/27 02:54:14;;;;;;;2.78;1.50;;;2.90;99.90;;;;;;5009263;28;20443;-69
2022/12/27 02:57:07;;;;;;;5.35;1.80;;;2.80;99.90;;;;;;4954399;28;20043;-70
2022/12/27 03:03:20;;;;;;;4.97;1.60;;;2.70;99.90;;;;;;4932098;29;20098;-70
2022/12/27 03:15:56;;;;;;;2.53;1.42;;;2.80;99.90;;;;;;4935091;29;20040;-72
2022/12/27 03:18:26;;;;;;;4.35;1.58;;;2.80;99.90;;;;;;4932743;29;20051;-71
2022/12/27 03:26:34;;;;;;;3.53;1.80;;;2.80;99.90;;;;;;4936252;29;20149;-72
2022/12/27 03:34:46;;;;;;;4.18;1.80;;;2.80;99.90;;;;;;5014096;28;20417;-70
2022/12/27 03:43:33;;;;;;;7.28;1.60;;;2.70;99.90;;;;;;5016032;28;20120;-71
2022/12/27 03:46:34;;;;;;;4.18;1.77;;;2.60;99.90;;;;;;5006865;28;20473;-70
2022/12/27 03:49:13;;;;;;;4.40;1.75;;;2.70;99.90;;;;;;5006096;28;20046;-70
2022/12/27 03:51:47;;;;;;;5.82;1.90;;;2.60;99.90;;;;;;4993191;28;20520;-70
2022/12/27 03:54:25;;;;;;;4.90;1.63;;;2.50;99.90;;;;;;5012025;28;20038;-70
2022/12/27 03:56:55;;;;;;;3.55;1.60;;;2.50;99.90;;;;;;4994686;28;20481;-70
2022/12/27 03:59:22;;;;;;;4.75;1.77;;;2.50;99.90;;;;;;5010509;28;20096;-70
2022/12/27 04:01:50;;;;;;;4.15;1.58;;;2.50;99.90;;;;;;5011478;28;20049;-70
2022/12/27 04:04:17;;;;;;;3.45;1.70;;;2.50;99.90;;;;;;5011479;28;20053;-70
2022/12/27 04:06:45;;;;;;;3.88;1.73;;;2.40;99.90;;;;;;4994394;28;20053;-70
2022/12/27 04:36:50;;;;;;;6.88;2.00;;;2.20;99.90;;;;;;5026448;28;20064;-70
2022/12/27 04:39:17;;;;;;;4.18;1.88;;;2.20;99.90;;;;;;5025069;28;20111;-71
2022/12/27 04:56:06;;;;;;;5.20;1.90;;;2.30;99.90;;;;;;5026225;28;20508;-67
2022/12/27 04:58:34;;;;;;;2.70;1.55;;;2.30;99.90;;;;;;5009059;28;20611;-70
2022/12/27 05:03:51;;;;;;;6.40;2.00;;;2.30;99.90;;;;;;5010324;28;20046;-70
2022/12/27 05:06:19;;;;;;;5.70;1.75;;;2.30;99.90;;;;;;5010774;28;20046;-69
2022/12/27 05:14:19;;;;;;;3.83;1.63;;;2.30;99.90;;;;;;5008571;28;20508;-70
2022/12/27 05:16:46;;;;;;;6.13;1.95;;;2.30;99.90;;;;;;5010506;28;20042;-70
2022/12/27 05:19:14;;;;;;;3.05;1.70;;;2.30;99.90;;;;;;4991927;28;20050;-71
2022/12/27 05:25:33;;;;;;;5.38;1.80;;;2.20;99.90;;;;;;5009204;28;20057;-71
2022/12/27 05:27:17;;;;;;;4.88;1.70;;;2.30;99.90;;;;;;4990695;28;20077;-70
2022/12/27 05:29:45;;;;;;;5.25;2.22;;;2.20;99.90;;;;;;5005354;28;20072;-70
2022/12/27 05:32:12;;;;;;;5.40;1.48;;;2.30;99.90;;;;;;5009016;28;20500;-70
2022/12/27 05:34:40;;;;;;;5.13;1.73;;;2.30;99.90;;;;;;5007242;28;20183;-70
2022/12/27 05:37:08;;;;;;;4.95;2.00;;;2.30;99.90;;;;;;5010537;28;20377;-70
2022/12/27 05:39:35;;;;;;;6.40;1.80;;;2.40;99.90;;;;;;5009959;28;20552;-71
2022/12/27 05:42:03;;;;;;;12.20;3.03;;;2.40;99.90;;;;;;5007938;28;20504;-70
2022/12/27 05:44:30;;;;;;;4.47;1.90;;;2.30;99.90;;;;;;5010116;28;20464;-70
2022/12/27 05:46:57;;;;;;;2.97;1.70;;;2.30;99.90;;;;;;5010360;28;20092;-70
2022/12/27 05:49:25;;;;;;;3.30;1.50;;;2.30;99.90;;;;;;5024913;28;20488;-71
2022/12/27 05:51:52;;;;;;;4.93;1.75;;;2.30;99.90;;;;;;5005563;28;20047;-70
2022/12/27 05:54:19;;;;;;;5.05;1.70;;;2.30;99.90;;;;;;5022832;28;20042;-71
2022/12/27 05:56:47;;;;;;;6.78;1.77;;;2.30;99.90;;;;;;5005599;28;20046;-71
2022/12/27 05:59:14;;;;;;;4.28;1.75;;;2.30;99.90;;;;;;5009704;28;20049;-70
2022/12/27 06:01:41;;;;;;;4.03;1.80;;;2.30;99.90;;;;;;5010165;28;20064;-67
2022/12/27 06:04:09;;;;;;;4.38;1.98;;;2.20;99.90;;;;;;5009851;28;20065;-71
2022/12/27 06:06:36;;;;;;;6.78;2.10;;;2.20;99.90;;;;;;5007624;28;20053;-70
2022/12/27 06:09:04;;;;;;;9.82;2.15;;;2.20;99.90;;;;;;5007394;28;20042;-71
2022/12/27 06:11:31;;;;;;;5.93;1.80;;;2.20;99.90;;;;;;5007261;28;20049;-71
2022/12/27 06:13:58;;;;;;;4.55;1.95;;;2.10;99.90;;;;;;5008847;28;20037;-71
2022/12/27 06:16:26;;;;;;;6.82;1.98;;;2.20;99.90;;;;;;5008916;28;20108;-70
2022/12/27 06:18:53;;;;;;;6.35;1.92;;;2.20;99.90;;;;;;5026775;28;20073;-73
2022/12/27 06:21:21;;;;;;;9.63;1.80;;;2.30;99.90;;;;;;5027841;28;20455;-70
2022/12/27 06:23:49;;;;;;;5.45;1.98;;;2.30;99.90;;;;;;5026557;28;20054;-71
2022/12/27 06:26:27;;;;;;;6.07;1.85;;;2.30;99.90;;;;;;4996388;28;20595;-71
2022/12/27 06:28:57;;;;;;;3.10;1.52;;;2.30;99.90;;;;;;5036097;28;20065;-71
2022/12/27 06:31:25;;;;;;;6.65;1.90;;;2.30;99.90;;;;;;5008558;28;20125;-71
2022/12/27 06:33:53;;;;;;;4.32;1.80;;;2.30;99.90;;;;;;5012482;28;20060;-70
2022/12/27 06:36:26;;;;;;;6.35;2.10;;;2.40;99.90;;;;;;5009006;28;20136;-67
2022/12/27 06:38:53;;;;;;;;;;;2.30;99.90;;;;;;5010659;28;20500;-67
2022/12/27 06:41:21;;;;;;;7.13;1.70;;;2.30;99.90;;;;;;5012246;28;19951;-71
2022/12/27 06:43:53;;;;;;;8.65;1.85;;;2.20;99.90;;;;;;5013332;28;20045;-70
2022/12/27 06:46:23;;;;;;;8.30;2.05;;;2.20;99.90;;;;;;5011863;28;20439;-70
2022/12/27 06:48:51;;;;;;;6.40;2.25;;;2.30;99.90;;;;;;5027749;28;20048;-71
2022/12/27 06:51:19;;;;;;;7.97;2.20;;;2.30;99.90;;;;;;5010717;28;20468;-70
2022/12/27 06:53:47;;;;;;;4.45;2.30;;;2.30;99.90;;;;;;5024179;28;20050;-70
2022/12/27 06:56:20;;;;;;;6.20;2.30;;;2.30;99.90;;;;;;5009869;28;20121;-71
2022/12/27 06:58:49;;;;;;;6.05;2.00;;;2.30;99.90;;;;;;5012432;28;20042;-71
2022/12/27 07:01:20;;;;;;;5.57;2.17;;;2.20;99.90;;;;;;5006574;28;20064;-70
2022/12/27 07:03:56;;;;;;;6.50;2.53;;;2.20;99.90;;;;;;5020097;28;20119;-71
2022/12/27 07:06:26;;;;;;;5.93;2.30;;;2.20;99.90;;;;;;5010314;28;20060;-71
2022/12/27 07:08:55;;;;;;;5.20;2.20;;;2.30;99.90;;;;;;4992068;28;20050;-71
2022/12/27 07:11:23;;;;;;;5.38;2.10;;;2.30;99.90;;;;;;5010122;28;20128;-71
2022/12/27 07:13:52;;;;;;;6.57;2.28;;;2.30;99.90;;;;;;5010112;28;20559;-71
2022/12/27 07:16:25;;;;;;;6.30;2.22;;;2.30;99.90;;;;;;5009456;28;20046;-71
2022/12/27 07:18:57;;;;;;;5.78;2.33;;;2.30;99.90;;;;;;5009464;28;20038;-71
2022/12/27 07:21:25;;;;;;;;;;;2.30;99.90;;;;;;5009010;28;20070;-71
2022/12/27 07:23:53;;;;;;;9.48;2.60;;;2.30;99.90;;;;;;5009910;28;19925;-71
2022/12/27 07:26:25;;;;;;;9.05;2.40;;;2.40;99.90;;;;;;5027271;28;20116;-72
2022/12/27 07:28:53;;;;;;;;;;;2.40;99.90;;;;;;5012785;28;20050;-70
2022/12/27 07:31:23;;;;;;;6.40;2.28;;;2.40;99.90;;;;;;5007826;28;20403;-69
2022/12/27 07:33:51;;;;;;;4.70;2.67;;;2.50;99.90;;;;;;5002070;28;20041;-70
2022/12/27 07:36:21;;;;;;;6.53;2.58;;;2.40;99.90;;;;;;5030894;28;20548;-71
2022/12/27 07:38:49;;;;;;;8.57;2.47;;;2.40;99.90;;;;;;5009470;28;20069;-67
2022/12/27 07:41:17;;;;;;;9.23;2.47;;;2.50;99.90;;;;;;4977308;28;20449;-70
2022/12/27 07:43:44;;;;;;;9.80;2.38;;;2.60;99.90;;;;;;5010273;28;20282;-70
2022/12/27 07:46:14;;;;;;;7.20;2.65;;;2.60;99.90;;;;;;5009018;28;20471;-71
2022/12/27 07:48:42;;;;;;;4.47;2.75;;;2.60;99.90;;;;;;5000822;28;20125;-71
2022/12/27 07:51:10;;;;;;;6.80;2.25;;;2.60;99.90;;;;;;4994537;28;20050;-70
2022/12/27 07:53:38;;;;;;;8.38;2.83;;;2.70;99.90;;;;;;5025065;28;20129;-70
2022/12/27 07:56:27;;;;;;;5.88;3.17;;;2.70;99.90;;;;;;4994459;28;20370;-71
2022/12/27 07:58:58;;;;;;;6.68;2.83;;;2.80;99.90;;;;;;5010865;28;20065;-74
2022/12/27 08:01:27;;;;;;;9.32;2.65;;;2.90;99.90;;;;;;4994498;28;20362;-73
2022/12/27 08:03:55;;;;;;;7.85;2.83;;;2.90;99.90;;;;;;5011385;28;20152;-72
2022/12/27 08:06:27;;;;;;;9.27;2.42;;;2.90;99.90;;;;;;4989492;28;20119;-74
2022/12/27 08:08:56;;;;;;;;;;;2.90;99.90;;;;;;5010183;28;20467;-74
2022/12/27 08:11:25;;;;;;;7.55;2.53;;;3.00;99.90;;;;;;5026371;28;19921;-76
2022/12/27 08:13:52;;;;;;;6.18;2.67;;;3.10;99.90;;;;;;5007274;28;20042;-74
2022/12/27 08:16:23;;;;;;;6.88;3.30;;;3.10;99.90;;;;;;5003238;28;20062;-75
2022/12/27 08:18:54;;;;;;;7.22;2.63;;;3.20;99.90;;;;;;5026612;28;20476;-74
2022/12/27 08:21:22;;;;;;;8.98;2.45;;;3.20;99.90;;;;;;5009740;28;20088;-74
2022/12/27 08:23:50;;;;;;;6.13;2.47;;;3.20;99.90;;;;;;4992437;28;20054;-74
2022/12/27 08:26:18;;;;;;;11.65;2.75;;;3.40;99.90;;;;;;5010755;28;20501;-74
2022/12/27 08:28:45;;;;;;;6.70;2.30;;;3.30;99.90;;;;;;4999545;28;20066;-76
2022/12/27 08:31:13;;;;;;;4.90;2.00;;;3.40;99.90;;;;;;4992400;28;20046;-75
2022/12/27 08:33:40;;;;;;;13.20;3.00;;;3.50;99.90;;;;;;4993849;28;20050;-74
2022/12/27 08:36:10;;;;;;;5.43;2.30;;;3.50;99.90;;;;;;5026274;28;20058;-72
2022/12/27 08:38:58;;;;;;;9.80;2.90;;;3.60;99.90;;;;;;5010928;28;20030;-74
2022/12/27 08:41:25;;;;;;;8.70;2.97;;;3.60;99.90;;;;;;4993784;28;20100;-74
2022/12/27 08:43:53;;;;;;;7.50;2.58;;;3.60;99.90;;;;;;5011175;28;20045;-74
2022/12/27 08:46:20;;;;;;;7.10;2.22;;;3.60;99.90;;;;;;5022651;28;20520;-75
2022/12/27 08:48:49;;;;;;;5.32;2.83;;;3.60;99.90;;;;;;4995916;28;20140;-72
2022/12/27 08:51:17;;;;;;;8.23;2.72;;;3.70;99.90;;;;;;5010869;28;20065;-73
2022/12/27 08:53:59;;;;;;;8.60;2.60;;;3.70;99.90;;;;;;4993671;28;20042;-74
2022/12/27 08:56:26;;;;;;;5.47;2.40;;;3.80;99.90;;;;;;5011186;28;20544;-75
2022/12/27 08:58:54;;;;;;;5.25;2.40;;;3.80;99.90;;;;;;5010372;28;20380;-73
2022/12/27 09:01:21;;;;;;;5.70;2.28;;;3.90;99.90;;;;;;5010799;28;20046;-74
2022/12/27 09:03:49;;;;;;;9.30;2.40;;;4.00;99.90;;;;;;5008243;28;20394;-73
2022/12/27 09:06:22;;;;;;;7.10;2.28;;;4.00;99.90;;;;;;4974424;28;20520;-73
2022/12/27 09:08:51;;;;;;;6.78;2.35;;;4.00;99.90;;;;;;5006676;28;20125;-75
2022/12/27 09:11:30;;;;;;;7.35;2.35;;;4.10;99.90;;;;;;5014920;28;20035;-75
2022/12/27 09:13:59;;;;;;;7.40;2.15;;;4.20;99.90;;;;;;5033966;28;20477;-74
2022/12/27 09:16:28;;;;;;;6.70;2.75;;;4.20;99.90;;;;;;5015026;28;20123;-72
2022/12/27 09:18:57;;;;;;;8.05;2.38;;;4.30;99.90;;;;;;5005129;28;20080;-74
2022/12/27 09:21:27;;;;;;;5.60;2.08;;;4.30;99.90;;;;;;5009557;28;20477;-74
2022/12/27 09:23:55;;;;;;;7.50;2.40;;;4.40;99.90;;;;;;4975788;28;20116;-74
2022/12/27 09:26:25;;;;;;;5.78;2.28;;;4.40;99.90;;;;;;5024510;28;20452;-74
2022/12/27 09:28:53;;;;;;;7.43;2.38;;;4.40;99.90;;;;;;5010232;28;20046;-73
2022/12/27 09:31:21;;;;;;;5.93;2.15;;;4.50;99.90;;;;;;5002418;28;20042;-73
2022/12/27 09:33:50;;;;;;;10.82;2.40;;;4.50;99.90;;;;;;5009132;28;20721;-73
2022/12/27 09:36:21;;;;;;;8.43;2.90;;;4.60;99.90;;;;;;5006990;28;20435;-73
2022/12/27 09:38:51;;;;;;;5.97;2.03;;;4.70;99.90;;;;;;4991202;28;20416;-74
2022/12/27 09:41:35;;;;;;;5.72;1.90;;;4.70;99.90;;;;;;4975865;28;20479;-74
2022/12/27 09:44:32;;;;;;;6.53;2.17;;;4.80;99.90;;;;;;4996851;28;20531;-74
2022/12/27 09:47:17;;;;;;;7.88;1.90;;;4.90;99.90;;;;;;5004567;28;20050;-74
2022/12/27 09:49:50;;;;;;;7.05;2.05;;;4.90;99.90;;;;;;4989296;28;20046;-71
2022/12/27 09:52:33;;;;;;;5.13;2.03;;;5.00;99.90;;;;;;5023473;28;20070;-72
2022/12/27 09:55:11;;;;;;;5.40;2.25;;;5.00;99.90;;;;;;4992019;28;20060;-74
2022/12/27 09:57:44;;;;;;;7.05;2.38;;;5.10;99.90;;;;;;5004483;28;20026;-73
2022/12/27 10:00:19;;;;;;;8.68;2.50;;;5.20;99.90;;;;;;5003846;28;20038;-73
2022/12/27 10:03:04;;;;;;;8.20;2.17;;;5.30;99.90;;;;;;4994129;28;20057;-75
2022/12/27 10:05:35;;;;;;;5.35;2.20;;;5.30;99.90;;;;;;5006018;28;20572;-73
2022/12/27 10:08:28;;;;;;;6.72;2.08;;;5.40;99.90;;;;;;4987938;28;20073;-73
2022/12/27 10:11:35;;;;;;;6.95;2.15;;;5.50;99.90;;;;;;4998098;28;20504;-73
2022/12/27 10:14:44;;;;;;;8.10;2.13;;;5.60;99.90;;;;;;5018820;28;20042;-73
2022/12/27 10:17:31;;;;;;;9.00;2.53;;;5.70;99.90;;;;;;5024874;28;20406;-76
2022/12/27 10:20:11;;;;;;;7.55;1.95;;;5.70;99.90;;;;;;5009398;28;20048;-75
2022/12/27 10:23:00;;;;;;;9.38;2.20;;;5.80;99.90;;;;;;5004362;28;20066;-74
2022/12/27 10:25:34;;;;;;;4.55;1.90;;;5.70;99.90;;;;;;5005686;28;20129;-72
2022/12/27 10:28:11;;;;;;;10.40;1.98;;;5.90;99.90;;;;;;5005902;28;20038;-73
2022/12/27 10:30:40;;;;;;;5.55;2.22;;;6.00;99.90;;;;;;5010841;28;20050;-74
2022/12/27 10:33:26;;;;;;;7.78;2.08;;;6.20;99.90;;;;;;4989010;28;20501;-73
2022/12/27 10:35:55;;;;;;;7.82;2.00;;;6.20;99.90;;;;;;5008593;28;20045;-75
2022/12/27 10:38:24;;;;;;;4.05;1.88;;;6.40;99.90;;;;;;4995936;28;20449;-73
2022/12/27 10:41:20;;;;;;;7.10;2.05;;;6.60;99.90;;;;;;5030284;28;20397;-73
2022/12/27 10:43:53;;;;;;;6.18;1.95;;;6.90;99.90;;;;;;5013965;28;20058;-74
2022/12/27 10:46:29;;;;;;;7.95;2.40;;;7.70;99.90;;;;;;5005521;28;20053;-74
2022/12/27 10:49:19;;;;;;;6.00;2.55;;;8.90;99.90;;;;;;5004417;28;20422;-74
2022/12/27 10:51:54;;;;;;;5.78;2.30;;;8.80;99.90;;;;;;5007641;28;20046;-74
2022/12/27 10:54:26;;;;;;;6.40;2.33;;;8.90;99.90;;;;;;4985800;28;20068;-76
2022/12/27 10:56:55;;;;;;;5.60;1.73;;;8.50;99.90;;;;;;5007155;28;20132;-74
2022/12/27 10:59:25;;;;;;;9.40;2.92;;;8.50;99.90;;;;;;4987812;28;20046;-74
2022/12/27 11:01:59;;;;;;;7.15;2.20;;;9.00;99.90;;;;;;5003884;28;20473;-74
2022/12/27 11:04:29;;;;;;;7.40;2.40;;;9.20;99.90;;;;;;5005049;28;20400;-74
2022/12/27 11:06:58;;;;;;;5.70;1.90;;;10.10;99.90;;;;;;5039471;28;20502;-74
2022/12/27 11:09:40;;;;;;;9.02;2.30;;;10.40;99.90;;;;;;5010746;28;20046;-77
2022/12/27 11:12:24;;;;;;;8.27;2.55;;;11.00;99.90;;;;;;5011513;28;20038;-73
2022/12/27 11:14:59;;;;;;;7.20;2.45;;;11.00;99.90;;;;;;5014294;28;20461;-74
2022/12/27 11:17:37;;;;;;;7.72;2.00;;;10.60;99.90;;;;;;5010461;28;20058;-74
2022/12/27 11:20:38;;;;;;;5.05;2.17;;;10.80;99.90;;;;;;5025801;28;20126;-75
2022/12/27 11:23:08;;;;;;;8.07;2.20;;;10.20;99.90;;;;;;4971845;28;20062;-74
2022/12/27 11:25:56;;;;;;;7.65;2.53;;;10.20;99.90;;;;;;5007152;28;20440;-75
2022/12/27 11:28:38;;;;;;;7.75;2.92;;;10.40;99.90;;;;;;5027054;28;20049;-73
2022/12/27 11:31:12;;;;;;;7.55;2.53;;;10.40;99.90;;;;;;5024862;28;20409;-75
2022/12/27 11:33:45;;;;;;;9.25;2.92;;;11.00;99.90;;;;;;5039879;28;20481;-74
2022/12/27 11:36:21;;;;;;;7.78;3.15;;;10.90;99.90;;;;;;5002794;28;20069;-75
2022/12/27 11:38:50;;;;;;;7.50;2.47;;;11.30;99.90;;;;;;5030632;28;20163;-75
2022/12/27 11:41:24;;;;;;;5.78;2.22;;;11.30;99.90;;;;;;5010694;28;20038;-74
2022/12/27 11:44:28;;;;;;;4.72;2.05;;;11.80;99.90;;;;;;5026834;28;20057;-73
2022/12/27 11:47:00;;;;;;;11.40;2.83;;;11.70;99.90;;;;;;5022639;28;20054;-74
2022/12/27 11:49:35;;;;;;;4.50;2.15;;;12.30;99.90;;;;;;5003853;28;20107;-75
2022/12/27 11:52:25;;;;;;;6.97;2.58;;;12.60;99.90;;;;;;5003350;28;20084;-75
2022/12/27 11:55:20;;;;;;;6.00;2.50;;;12.20;99.90;;;;;;4994533;28;20050;-76
2022/12/27 11:58:12;;;;;;;8.88;2.88;;;12.20;99.90;;;;;;5001414;28;20050;-74
2022/12/27 12:01:17;;;;;;;6.68;2.40;;;13.00;99.90;;;;;;4993810;28;20038;-74
2022/12/27 12:03:56;;;;;;;9.90;2.63;;;13.50;99.90;;;;;;4994350;28;20137;-73
2022/12/27 12:06:50;;;;;;;6.50;2.38;;;13.70;99.90;;;;;;5009971;28;20504;-72
2022/12/27 12:09:48;;;;;;;11.93;2.90;;;13.00;99.90;;;;;;5006306;28;20518;-74
2022/12/27 12:12:54;;;;;;;8.40;2.38;;;12.70;99.90;;;;;;4993266;28;20464;-74
2022/12/27 12:15:56;;;;;;;5.15;2.35;;;12.30;99.90;;;;;;5002755;28;20133;-73
2022/12/27 12:18:36;;;;;;;6.18;2.80;;;12.40;99.90;;;;;;5003394;28;20042;-75
2022/12/27 12:21:26;;;;;;;7.78;2.70;;;11.90;99.90;;;;;;5011444;28;20042;-74
2022/12/27 12:24:24;;;;;;;6.30;2.58;;;11.20;99.90;;;;;;5007083;28;20054;-73
2022/12/27 12:27:29;;;;;;;6.45;2.58;;;10.90;99.90;;;;;;5005414;28;20052;-74
2022/12/27 12:29:59;;;;;;;7.68;3.08;;;11.40;99.90;;;;;;5011954;28;20137;-74
2022/12/27 12:33:21;;;;;;;5.65;2.83;;;11.70;99.90;;;;;;5025013;28;20034;-75
2022/12/27 12:35:52;;;;;;;3.80;2.60;;;12.20;99.90;;;;;;5006312;28;20065;-75
2022/12/27 12:38:21;;;;;;;8.68;2.90;;;12.20;99.90;;;;;;5008653;28;20092;-74
2022/12/27 12:40:57;;;;;;;7.55;2.60;;;11.60;99.90;;;;;;4991694;28;20072;-76
2022/12/27 12:43:55;;;;;;;6.03;3.08;;;11.60;99.90;;;;;;4990911;28;20041;-75
2022/12/27 12:46:47;;;;;;;9.52;3.10;;;12.20;99.90;;;;;;4989197;28;20056;-73
2022/12/27 12:49:20;;;;;;;6.97;2.83;;;12.40;99.90;;;;;;4989388;28;20053;-76
2022/12/27 12:52:18;;;;;;;7.65;3.00;;;13.10;99.90;;;;;;4987394;28;20439;-74
2022/12/27 12:55:45;;;;;;;4.70;3.15;;;13.60;99.90;;;;;;4988588;28;20133;-72
2022/12/27 12:58:38;;;;;;;8.45;3.13;;;13.60;99.90;;;;;;4966029;28;20117;-75
2022/12/27 13:01:51;;;;;;;6.30;2.58;;;14.20;99.90;;;;;;4948641;28;20051;-75
2022/12/27 13:04:40;;;;;;;8.38;2.83;;;13.40;99.90;;;;;;4930788;28;20526;-75
2022/12/27 13:07:17;;;;;;;7.80;2.80;;;13.70;99.90;;;;;;4964965;28;20609;-74
2022/12/27 13:09:59;;;;;;;8.40;2.90;;;13.90;99.90;;;;;;4943453;28;20074;-72
2022/12/27 13:12:29;;;;;;;;;;;14.40;99.90;;;;;;4966052;28;20050;-76
2022/12/27 13:15:12;;;;;;;6.30;2.78;;;13.80;99.90;;;;;;4967632;28;19930;-73
2022/12/27 13:18:21;;;;;;;7.32;2.80;;;13.90;99.90;;;;;;4948817;28;20046;-72
2022/12/27 13:21:32;;;;;;;5.88;3.00;;;13.80;99.90;;;;;;4967372;28;20607;-74
2022/12/27 13:24:27;;;;;;;5.15;2.80;;;13.60;99.90;;;;;;4982186;28;20053;-75
2022/12/27 13:27:08;;;;;;;9.18;3.20;;;14.20;99.90;;;;;;4964667;28;20105;-74
2022/12/27 13:29:59;;;;;;;8.45;3.53;;;13.80;99.90;;;;;;4980871;28;20096;-75
2022/12/27 13:33:01;;;;;;;6.35;3.30;;;12.60;99.90;;;;;;4992637;28;20245;-75
2022/12/27 13:35:46;;;;;;;7.72;2.78;;;13.20;99.90;;;;;;4991092;28;20132;-73
2022/12/27 13:38:13;;;;;;;11.45;3.45;;;14.10;99.90;;;;;;5006915;28;20045;-73
2022/12/27 13:41:22;;;;;;;4.50;2.80;;;14.00;99.90;;;;;;5005766;28;20420;-75
2022/12/27 13:44:30;;;;;;;6.72;3.35;;;13.90;99.90;;;;;;4996068;28;20132;-75
2022/12/27 13:47:09;;;;;;;6.53;2.88;;;13.20;99.90;;;;;;5007818;28;20437;-75
2022/12/27 13:49:55;;;;;;;8.35;2.92;;;13.40;99.90;;;;;;5006700;28;20050;-77
2022/12/27 13:52:35;;;;;;;5.35;3.00;;;12.80;99.90;;;;;;5009085;28;20133;-74
2022/12/27 13:55:27;;;;;;;11.50;3.10;;;13.20;99.90;;;;;;5007895;28;20460;-74
2022/12/27 13:58:20;;;;;;;6.03;3.22;;;12.70;99.90;;;;;;5010330;28;20544;-75
2022/12/27 14:01:26;;;;;;;5.57;2.97;;;13.40;99.90;;;;;;5040594;28;20044;-72
2022/12/27 14:04:05;;;;;;;5.60;2.83;;;14.10;99.90;;;;;;5038640;28;20577;-76
2022/12/27 14:07:02;;;;;;;9.18;3.72;;;15.30;99.90;;;;;;5023030;28;20053;-75
2022/12/27 14:09:41;;;;;;;6.97;3.28;;;15.20;99.90;;;;;;5006375;28;20448;-74
2022/12/27 14:12:17;;;;;;;6.20;3.03;;;15.80;99.90;;;;;;4993308;28;20534;-74
2022/12/27 14:14:46;;;;;;;6.75;3.40;;;16.00;99.90;;;;;;5006293;28;20132;-74
2022/12/27 14:17:47;;;;;;;6.18;3.30;;;15.10;99.90;;;;;;5008946;28;20136;-75
2022/12/27 14:20:37;;;;;;;7.75;3.47;;;15.20;99.90;;;;;;5012157;28;20049;-74
2022/12/27 14:23:34;;;;;;;7.95;3.40;;;14.50;99.90;;;;;;5029260;28;20409;-75
2022/12/27 14:26:25;;;;;;;6.95;3.30;;;14.20;99.90;;;;;;4991615;28;20046;-73
2022/12/27 14:29:18;;;;;;;4.30;3.28;;;13.40;99.90;;;;;;5007120;28;20488;-74
2022/12/27 14:32:29;;;;;;;9.30;3.55;;;12.70;99.90;;;;;;4999398;28;20042;-74
2022/12/27 14:35:17;;;;;;;7.55;3.50;;;12.60;99.90;;;;;;5005371;28;20068;-73
2022/12/27 14:38:16;;;;;;;7.57;3.75;;;11.80;99.90;;;;;;5010325;28;20060;-72
2022/12/27 14:40:47;;;;;;;7.63;3.58;;;10.30;99.90;;;;;;5035953;28;20045;-72
2022/12/27 14:43:46;;;;;;;9.05;3.70;;;9.30;99.90;;;;;;5010197;28;20054;-74
2022/12/27 14:46:23;;;;;;;6.20;3.40;;;8.70;99.90;;;;;;5037675;28;20058;-73
2022/12/27 14:49:09;;;;;;;7.65;3.05;;;8.10;99.90;;;;;;5007385;28;20116;-76
2022/12/27 14:51:57;;;;;;;5.90;3.47;;;7.80;99.90;;;;;;4998462;28;20038;-74
2022/12/27 14:54:52;;;;;;;7.50;3.38;;;7.70;99.90;;;;;;5007894;28;20039;-73
2022/12/27 14:57:39;;;;;;;6.28;3.20;;;7.20;99.90;;;;;;5023848;28;20069;-74
2022/12/27 15:00:16;;;;;;;7.65;3.10;;;7.00;99.90;;;;;;5004551;28;20051;-73
2022/12/27 15:03:20;;;;;;;6.80;3.20;;;6.90;99.90;;;;;;4996570;28;20034;-73
2022/12/27 15:06:07;;;;;;;5.25;3.10;;;6.70;99.90;;;;;;5003583;28;20663;-73
2022/12/27 15:09:04;;;;;;;8.30;2.88;;;6.70;99.90;;;;;;4992631;28;20516;-73
2022/12/27 15:11:33;;;;;;;6.60;3.00;;;6.60;99.90;;;;;;5005225;28;20132;-75
2022/12/27 15:14:09;;;;;;;7.50;3.00;;;6.50;99.90;;;;;;5006910;28;20137;-73
2022/12/27 15:17:07;;;;;;;7.72;2.83;;;6.50;99.90;;;;;;5019958;28;20428;-74
2022/12/27 15:20:08;;;;;;;11.65;3.47;;;6.40;99.90;;;;;;5008551;28;20168;-73
2022/12/27 15:22:54;;;;;;;7.20;3.10;;;6.30;99.90;;;;;;5017273;28;20438;-72
2022/12/27 15:25:39;;;;;;;7.28;3.13;;;6.30;99.90;;;;;;5006864;28;20519;-74